Time;durP1;ratioP1;P1;durP2;ratioP2;P2;SDS_P1;SDS_P2;PMS_P1;PMS_P2;Temp;Humidity;BMP_temperature;BMP_pressure;BME280_temperature;BME280_humidity;BME280_pressure;Samples;Min_cycle;Max_cycle;Signal;HPM_P1;HPM_P2
2023/03/01 00:01:00;;;;;;;;;;;0.40;72.20;;;;;;4994168;28;19953;-89
2023/03/01 00:03:25;;;;;;;;;;;0.40;71.80;;;;;;4992436;28;19921;-89
2023/03/01 00:05:51;;;;;;;;;;;0.40;72.10;;;;;;4989098;28;19924;-89
2023/03/01 00:08:16;;;;;;;;;;;0.40;71.80;;;;;;5011498;28;19921;-89
2023/03/01 00:10:42;;;;;;;;;;;0.40;71.70;;;;;;4996992;28;20476;-88
2023/03/01 00:13:07;;;;;;;;;;;0.40;72.10;;;;;;5004159;28;19980;-89
2023/03/01 00:15:34;;;;;;;;;;;0.30;72.30;;;;;;5012294;28;19914;-88
2023/03/01 00:18:00;;;;;;;;;;;0.30;72.80;;;;;;4991018;28;20343;-89
2023/03/01 00:20:25;;;;;;;;;;;0.20;73.10;;;;;;4996294;28;19945;-89
2023/03/01 00:22:51;;;;;;;;;;;0.30;73.20;;;;;;5009277;28;19913;-88
2023/03/01 00:25:16;;;;;;;;;;;0.40;73.00;;;;;;4989083;28;20286;-89
2023/03/01 00:27:41;;;;;;;;;;;0.30;72.90;;;;;;4993635;28;19971;-88
2023/03/01 00:30:08;;;;;;;;;;;0.20;72.80;;;;;;4997162;28;19921;-88
2023/03/01 00:32:33;;;;;;;;;;;0.20;72.70;;;;;;4997810;28;19917;-89
2023/03/01 00:34:59;;;;;;;;;;;0.20;73.40;;;;;;4995695;28;19977;-88
2023/03/01 00:37:24;;;;;;;;;;;0.20;73.00;;;;;;4987663;28;20644;-88
2023/03/01 00:39:49;;;;;;;;;;;0.30;72.50;;;;;;4994806;28;19920;-89
2023/03/01 00:42:15;;;;;;;;;;;0.30;72.20;;;;;;4995129;28;19922;-89
2023/03/01 00:44:41;;;;;;;;;;;0.30;72.10;;;;;;4994811;28;19995;-88
2023/03/01 00:47:07;;;;;;;;;;;0.30;73.00;;;;;;4995858;28;20000;-89
2023/03/01 00:49:32;;;;;;;;;;;0.30;72.90;;;;;;4995778;28;19964;-89
2023/03/01 00:51:57;;;;;;;;;;;0.30;72.70;;;;;;4996367;28;19960;-89
2023/03/01 00:54:23;;;;;;;;;;;0.20;73.00;;;;;;4995501;28;20302;-89
2023/03/01 00:56:48;;;;;;;;;;;0.20;73.40;;;;;;5005754;28;19916;-88
2023/03/01 00:59:14;;;;;;;;;;;0.10;73.30;;;;;;5009085;28;20203;-88
2023/03/01 01:01:39;;;;;;;;;;;0.10;73.20;;;;;;4998187;28;19921;-89
2023/03/01 01:04:06;;;;;;;;;;;0.10;73.60;;;;;;4994870;28;19992;-89
2023/03/01 01:06:36;;;;;;;;;;;0.10;73.40;;;;;;4996483;28;20011;-90
2023/03/01 01:09:03;;;;;;;;;;;0.00;73.70;;;;;;4997458;28;19917;-89
2023/03/01 01:11:29;;;;;;;;;;;0.00;74.00;;;;;;4998482;28;20359;-89
2023/03/01 01:13:55;;;;;;;;;;;0.00;73.80;;;;;;4993244;28;20119;-89
2023/03/01 01:16:22;;;;;;;;;;;0.00;73.80;;;;;;5011177;28;20382;-89
2023/03/01 01:18:47;;;;;;;;;;;0.00;74.40;;;;;;4997110;28;19921;-88
2023/03/01 01:21:14;;;;;;;;;;;0.00;74.20;;;;;;4996128;28;19914;-89
2023/03/01 01:23:43;;;;;;;;;;;0.00;74.10;;;;;;5020510;28;19973;-88
2023/03/01 01:26:12;;;;;;;;;;;0.00;73.60;;;;;;5003275;28;20299;-89
2023/03/01 01:28:38;;;;;;;;;;;-3276.70;74.00;;;;;;4997078;28;19921;-88
2023/03/01 01:31:04;;;;;;;;;;;-3276.60;74.30;;;;;;4998077;28;20379;-89
2023/03/01 01:33:29;;;;;;;;;;;-3276.70;74.20;;;;;;4995672;28;19925;-88
2023/03/01 01:35:55;;;;;;;;;;;-3276.60;74.80;;;;;;4990123;28;19917;-89
2023/03/01 01:38:21;;;;;;;;;;;-3276.60;74.20;;;;;;4997105;28;19909;-88
2023/03/01 01:40:47;;;;;;;;;;;-3276.70;73.90;;;;;;4993995;28;20260;-89
2023/03/01 01:43:21;;;;;;;;;;;-3276.70;74.20;;;;;;5014917;28;19955;-87
2023/03/01 01:45:47;;;;;;;;;;;-3276.70;73.60;;;;;;5018994;28;19973;-87
2023/03/01 01:48:16;;;;;;;;;;;-3276.70;73.60;;;;;;5000941;28;19940;-89
2023/03/01 01:50:44;;;;;;;;;;;-3276.70;73.90;;;;;;5000590;28;19913;-89
2023/03/01 01:53:15;;;;;;;;;;;-3276.70;73.90;;;;;;5011483;28;19921;-89
2023/03/01 01:55:53;;;;;;;;;;;-3276.70;73.90;;;;;;4995125;28;19986;-90
2023/03/01 01:58:19;;;;;;;;;;;-3276.70;73.80;;;;;;4992558;28;19921;-88
2023/03/01 02:00:45;;;;;;;;;;;-3276.70;73.80;;;;;;5010137;28;19918;-89
2023/03/01 02:03:17;;;;;;;;;;;-3276.70;73.80;;;;;;5013135;28;19942;-89
2023/03/01 02:05:52;;;;;;;;;;;-3276.60;74.00;;;;;;4994661;28;19948;-89
2023/03/01 02:08:19;;;;;;;;;;;-3276.60;74.10;;;;;;4992046;28;19913;-89
2023/03/01 02:10:45;;;;;;;;;;;-3276.60;73.80;;;;;;5014385;28;19977;-90
2023/03/01 02:13:11;;;;;;;;;;;-3276.50;74.50;;;;;;4991568;28;19953;-89
2023/03/01 02:15:38;;;;;;;;;;;-3276.50;74.80;;;;;;4997521;28;20278;-88
2023/03/01 02:18:04;;;;;;;;;;;-3276.50;74.70;;;;;;5011018;28;19960;-88
2023/03/01 02:20:59;;;;;;;;;;;-3276.50;74.40;;;;;;4996101;28;20437;-89
2023/03/01 02:23:25;;;;;;;;;;;-3276.50;74.70;;;;;;4926930;28;20015;-89
2023/03/01 02:25:50;;;;;;;;;;;-3276.40;74.80;;;;;;4989366;28;20312;-89
2023/03/01 02:28:16;;;;;;;;;;;-3276.30;74.70;;;;;;4986378;28;19937;-88
2023/03/01 02:31:41;;;;;;;;;;;-3276.20;74.90;;;;;;5006481;28;19928;-88
2023/03/01 02:33:32;;;;;;;;;;;-3276.10;75.10;;;;;;5005851;28;19960;-89
2023/03/01 02:36:00;;;;;;;;;;;-3276.20;75.30;;;;;;4993124;28;19924;-89
2023/03/01 02:38:26;;;;;;;;;;;-3276.20;75.20;;;;;;5003710;28;19913;-88
2023/03/01 02:40:54;;;;;;;;;;;-3276.20;75.30;;;;;;5019175;28;22501;-89
2023/03/01 02:43:21;;;;;;;;;;;-3276.20;75.00;;;;;;4992452;28;20463;-89
2023/03/01 02:45:51;;;;;;;;;;;-3276.10;74.90;;;;;;4993430;28;19913;-89
2023/03/01 02:48:17;;;;;;;;;;;-3276.10;75.40;;;;;;5012941;28;19989;-88
2023/03/01 02:51:00;;;;;;;;;;;-3276.10;76.00;;;;;;5017601;28;19905;-87
2023/03/01 02:53:28;;;;;;;;;;;-3276.00;76.10;;;;;;4991418;28;19920;-89
2023/03/01 02:55:53;;;;;;;;;;;-3276.20;75.30;;;;;;4995514;28;20345;-89
2023/03/01 02:58:19;;;;;;;;;;;-3276.20;75.30;;;;;;4998484;28;19936;-90
2023/03/01 03:00:46;;;;;;;;;;;-3276.10;75.30;;;;;;4994447;28;19955;-89
2023/03/01 03:03:16;;;;;;;;;;;-3276.20;75.30;;;;;;4992952;28;19976;-89
2023/03/01 03:05:42;;;;;;;;;;;-3276.30;74.70;;;;;;4995130;28;19933;-90
2023/03/01 03:08:07;;;;;;;;;;;-3276.20;75.10;;;;;;4993267;28;19913;-90
2023/03/01 03:10:35;;;;;;;;;;;-3276.20;75.10;;;;;;4991841;28;19917;-90
2023/03/01 03:13:02;;;;;;;;;;;-3276.20;75.50;;;;;;4994860;28;19921;-89
2023/03/01 03:15:28;;;;;;;;;;;-3276.20;75.60;;;;;;5005288;28;19913;-89
2023/03/01 03:17:54;;;;;;;;;;;-3276.20;75.10;;;;;;5006939;28;19960;-89
2023/03/01 03:20:21;;;;;;;;;;;-3276.00;75.10;;;;;;4995015;28;20322;-90
2023/03/01 03:22:48;;;;;;;;;;;-3276.20;75.10;;;;;;4993302;28;19917;-89
2023/03/01 03:25:13;;;;;;;;;;;-3276.20;74.90;;;;;;4993216;28;19921;-90
2023/03/01 03:27:40;;;;;;;;;;;-3276.20;75.20;;;;;;4993676;28;20341;-89
2023/03/01 03:30:08;;;;;;;;;;;-3276.10;74.60;;;;;;4991844;28;19971;-88
2023/03/01 03:32:37;;;;;;;;;;;-3276.20;74.30;;;;;;4995294;28;19933;-89
2023/03/01 03:35:09;;;;;;;;;;;-3276.20;74.20;;;;;;4990164;28;19932;-88
2023/03/01 03:40:23;;;;;;;;;;;-3276.20;74.40;;;;;;4994994;28;19929;-89
2023/03/01 03:42:49;;;;;;;;;;;-3276.10;74.80;;;;;;4988944;28;19914;-89
2023/03/01 03:45:15;;;;;;;;;;;-3276.10;75.00;;;;;;4992006;28;20311;-89
2023/03/01 03:47:41;;;;;;;;;;;-3276.10;75.40;;;;;;4988777;28;20455;-89
2023/03/01 03:50:07;;;;;;;;;;;-3276.00;75.30;;;;;;4989201;28;19962;-89
2023/03/01 03:52:32;;;;;;;;;;;-3276.00;75.40;;;;;;4988352;28;19921;-89
2023/03/01 03:54:57;;;;;;;;;;;-3276.00;75.30;;;;;;5002569;28;19910;-88
2023/03/01 03:57:23;;;;;;;;;;;-3275.80;75.30;;;;;;4990352;28;19918;-89
2023/03/01 03:59:48;;;;;;;;;;;-3275.80;75.40;;;;;;4991240;28;20390;-89
2023/03/01 04:02:21;;;;;;;;;;;-3275.90;76.20;;;;;;4986779;28;19948;-89
2023/03/01 04:04:49;;;;;;;;;;;-3275.90;76.40;;;;;;5000584;28;19918;-89
2023/03/01 04:07:15;;;;;;;;;;;-3275.90;76.50;;;;;;4993599;28;19962;-89
2023/03/01 04:09:42;;;;;;;;;;;-3275.90;76.40;;;;;;4991166;28;19913;-89
2023/03/01 04:12:08;;;;;;;;;;;-3276.00;76.60;;;;;;4992005;28;19929;-89
2023/03/01 04:14:33;;;;;;;;;;;-3276.00;76.20;;;;;;5003884;28;19914;-89
2023/03/01 04:16:59;;;;;;;;;;;-3276.00;76.10;;;;;;5013678;28;19943;-87
2023/03/01 04:19:24;;;;;;;;;;;-3275.90;75.80;;;;;;5000498;28;20350;-89
2023/03/01 04:21:50;;;;;;;;;;;-3275.90;76.30;;;;;;4995736;28;20268;-89
2023/03/01 04:24:16;;;;;;;;;;;-3275.90;76.50;;;;;;4995465;28;20005;-88
2023/03/01 04:26:41;;;;;;;;;;;-3275.80;76.50;;;;;;4993887;28;19918;-89
2023/03/01 04:29:07;;;;;;;;;;;-3275.90;76.20;;;;;;4987962;28;19914;-89
2023/03/01 04:31:33;;;;;;;;;;;-3275.80;75.90;;;;;;4991131;28;19968;-89
2023/03/01 04:33:59;;;;;;;;;;;-3275.70;76.50;;;;;;4997534;28;20002;-89
2023/03/01 04:36:26;;;;;;;;;;;-3275.70;76.60;;;;;;5013204;28;19918;-89
2023/03/01 04:38:52;;;;;;;;;;;-3275.70;76.80;;;;;;4990456;28;19914;-89
2023/03/01 04:41:19;;;;;;;;;;;-3275.50;76.80;;;;;;4997443;28;19920;-88
2023/03/01 04:43:45;;;;;;;;;;;-3275.60;77.20;;;;;;4997020;28;19917;-88
2023/03/01 04:46:11;;;;;;;;;;;-3275.50;76.90;;;;;;5014171;28;19924;-89
2023/03/01 04:48:38;;;;;;;;;;;-3275.50;76.90;;;;;;4998801;28;19937;-89
2023/03/01 04:51:04;;;;;;;;;;;-3275.50;77.30;;;;;;4997495;28;20012;-87
2023/03/01 04:53:29;;;;;;;;;;;-3275.50;77.40;;;;;;4995712;28;19914;-89
2023/03/01 04:55:55;;;;;;;;;;;-3275.40;77.30;;;;;;5026416;28;19965;-88
2023/03/01 04:58:25;;;;;;;;;;;-3275.40;77.40;;;;;;5011699;28;19922;-89
2023/03/01 05:00:50;;;;;;;;;;;-3275.40;77.60;;;;;;5009793;28;19914;-88
2023/03/01 05:03:19;;;;;;;;;;;-3275.40;77.40;;;;;;4992341;28;19920;-88
2023/03/01 05:05:46;;;;;;;;;;;-3275.30;77.40;;;;;;4996219;28;19948;-88
2023/03/01 05:08:17;;;;;;;;;;;-3275.30;77.20;;;;;;5007064;28;20408;-89
2023/03/01 05:10:43;;;;;;;;;;;-3275.20;77.40;;;;;;5014417;28;19914;-89
2023/03/01 05:13:09;;;;;;;;;;;-3275.20;77.40;;;;;;4996160;28;19914;-87
2023/03/01 05:15:36;;;;;;;;;;;-3275.10;77.60;;;;;;4991693;28;19924;-89
2023/03/01 05:18:02;;;;;;;;;;;-3275.20;78.30;;;;;;4999317;28;19968;-88
2023/03/01 05:20:30;;;;;;;;;;;-3275.30;78.00;;;;;;5000721;28;19925;-89
2023/03/01 05:22:58;;;;;;;;;;;-3275.30;78.00;;;;;;5004788;28;19937;-88
2023/03/01 05:25:24;;;;;;;;;;;-3275.40;77.80;;;;;;5025052;28;19940;-88
2023/03/01 05:27:49;;;;;;;;;;;-3275.30;77.80;;;;;;5015813;28;19976;-89
2023/03/01 05:30:15;;;;;;;;;;;-3275.30;78.10;;;;;;4998297;28;19930;-89
2023/03/01 05:32:45;;;;;;;;;;;-3275.30;78.00;;;;;;5010008;28;20000;-88
2023/03/01 05:35:15;;;;;;;;;;;-3275.30;78.10;;;;;;4993411;28;19917;-89
2023/03/01 05:37:45;;;;;;;;;;;-3275.30;78.00;;;;;;5001893;28;20337;-88
2023/03/01 05:40:15;;;;;;;;;;;-3275.00;78.20;;;;;;4999555;28;19967;-89
2023/03/01 05:42:58;;;;;;;;;;;-3275.00;78.30;;;;;;5006649;28;19901;-89
2023/03/01 05:45:25;;;;;;;;;;;-3275.00;78.40;;;;;;5002523;28;19921;-89
2023/03/01 05:47:50;;;;;;;;;;;-3275.00;78.60;;;;;;4998210;28;19909;-90
2023/03/01 05:50:18;;;;;;;;;;;-3275.10;78.60;;;;;;4998853;28;19996;-89
2023/03/01 05:52:48;;;;;;;;;;;-3275.10;78.20;;;;;;4996146;28;20533;-88
2023/03/01 05:55:14;;;;;;;;;;;-3275.10;78.30;;;;;;4992870;28;19918;-88
2023/03/01 05:57:40;;;;;;;;;;;-3275.10;78.30;;;;;;4998027;28;19955;-88
2023/03/01 06:00:09;;;;;;;;;;;-3275.10;78.20;;;;;;4997351;28;19914;-93
2023/03/01 06:02:36;;;;;;;;;;;-3275.10;78.60;;;;;;4999386;28;19921;-86
2023/03/01 06:05:02;;;;;;;;;;;-3275.20;78.80;;;;;;5024566;28;20474;-92
2023/03/01 06:07:30;;;;;;;;;;;-3275.20;78.40;;;;;;5013165;28;19990;-95
2023/03/01 06:09:56;;;;;;;;;;;-3275.20;78.40;;;;;;5002950;28;20372;-91
2023/03/01 06:12:21;;;;;;;;;;;-3275.10;78.00;;;;;;4992404;28;19913;-88
2023/03/01 06:14:47;;;;;;;;;;;-3275.00;78.10;;;;;;5010804;28;19961;-91
2023/03/01 06:17:13;;;;;;;;;;;-3275.00;78.20;;;;;;5014177;28;19932;-87
2023/03/01 06:19:38;;;;;;;;;;;-3274.90;78.10;;;;;;5009715;28;19910;-88
2023/03/01 06:22:03;;;;;;;;;;;-3274.90;78.10;;;;;;5007104;28;19913;-88
2023/03/01 06:24:29;;;;;;;;;;;-3274.80;78.40;;;;;;5000765;28;19932;-87
2023/03/01 06:26:55;;;;;;;;;;;-3274.70;78.70;;;;;;5004604;28;19921;-87
2023/03/01 06:29:22;;;;;;;;;;;-3274.60;79.00;;;;;;5019018;28;19909;-88
2023/03/01 06:31:48;;;;;;;;;;;-3274.60;79.40;;;;;;5012433;28;19914;-85
2023/03/01 06:34:13;;;;;;;;;;;-3274.60;79.50;;;;;;5003120;28;19942;-85
2023/03/01 06:36:39;;;;;;;;;;;-3274.70;79.90;;;;;;4974655;28;19933;-86
2023/03/01 06:39:05;;;;;;;;;;;-3274.70;79.60;;;;;;4984269;28;20016;-86
2023/03/01 06:41:34;;;;;;;;;;;-3274.70;79.70;;;;;;4992148;28;20349;-92
2023/03/01 06:43:59;;;;;;;;;;;-3274.70;79.70;;;;;;4982388;28;19989;-87
2023/03/01 06:46:25;;;;;;;;;;;-3274.70;79.80;;;;;;4993785;28;19961;-87
2023/03/01 06:48:51;;;;;;;;;;;-3274.70;79.90;;;;;;4975863;28;20287;-87
2023/03/01 06:51:16;;;;;;;;;;;-3274.70;79.90;;;;;;4978933;28;19963;-90
2023/03/01 06:53:42;;;;;;;;;;;-3274.70;80.00;;;;;;4979219;28;19914;-90
2023/03/01 06:56:07;;;;;;;;;;;-3274.60;80.00;;;;;;4980064;28;19980;-89
2023/03/01 06:58:33;;;;;;;;;;;-3274.70;80.20;;;;;;4979171;28;19921;-90
2023/03/01 07:00:58;;;;;;;;;;;-3274.70;80.20;;;;;;4971462;28;19914;-90
2023/03/01 07:03:24;;;;;;;;;;;-3274.80;80.30;;;;;;4978205;28;20278;-90
2023/03/01 07:05:55;;;;;;;;;;;-3274.80;80.60;;;;;;4971044;28;19918;-89
2023/03/01 07:08:21;;;;;;;;;;;-3274.90;80.40;;;;;;4961053;28;19914;-89
2023/03/01 07:10:46;;;;;;;;;;;-3274.90;80.00;;;;;;4995393;28;19916;-90
2023/03/01 07:13:12;;;;;;;;;;;-3275.00;79.90;;;;;;4983064;28;19910;-90
2023/03/01 07:15:41;;;;;;;;;;;-3275.00;79.80;;;;;;4978531;28;19961;-90
2023/03/01 07:18:06;;;;;;;;;;;-3275.00;79.80;;;;;;4978283;28;19910;-89
2023/03/01 07:20:32;;;;;;;;;;;-3275.00;79.90;;;;;;4977730;28;19914;-89
2023/03/01 07:22:58;;;;;;;;;;;-3275.00;80.10;;;;;;4975449;28;19909;-90
2023/03/01 07:25:27;;;;;;;;;;;-3275.00;80.10;;;;;;4979179;28;19925;-90
2023/03/01 07:27:55;;;;;;;;;;;-3275.10;80.30;;;;;;4977833;28;19910;-90
2023/03/01 07:30:21;;;;;;;;;;;-3275.20;80.20;;;;;;4990696;28;19908;-90
2023/03/01 07:32:46;;;;;;;;;;;-3275.30;79.70;;;;;;4977259;28;19918;-89
2023/03/01 07:35:12;;;;;;;;;;;-3275.30;79.70;;;;;;5015882;28;20024;-89
2023/03/01 07:37:37;;;;;;;;;;;-3275.50;79.30;;;;;;5033552;28;19906;-85
2023/03/01 07:40:03;;;;;;;;;;;-3275.50;79.20;;;;;;5025413;28;20337;-87
2023/03/01 07:42:28;;;;;;;;;;;-3275.40;79.30;;;;;;5021515;28;19913;-85
2023/03/01 07:44:56;;;;;;;;;;;-3275.50;79.50;;;;;;5020710;28;19918;-85
2023/03/01 07:47:22;;;;;;;;;;;-3275.50;79.80;;;;;;5009871;28;19967;-85
2023/03/01 07:49:47;;;;;;;;;;;-3275.70;79.60;;;;;;5017440;28;19909;-85
2023/03/01 07:52:13;;;;;;;;;;;-3275.90;79.00;;;;;;5019768;28;19924;-86
2023/03/01 07:54:38;;;;;;;;;;;-3275.90;77.90;;;;;;5003773;28;19916;-87
2023/03/01 07:57:04;;;;;;;;;;;-3275.90;78.20;;;;;;4999946;28;19920;-86
2023/03/01 07:59:30;;;;;;;;;;;-3276.00;78.10;;;;;;4997144;28;20022;-87
2023/03/01 08:01:56;;;;;;;;;;;-3276.10;77.50;;;;;;5006391;28;19913;-87
2023/03/01 08:04:26;;;;;;;;;;;-3276.10;77.50;;;;;;5019009;28;19914;-87
2023/03/01 08:06:52;;;;;;;;;;;-3276.10;77.60;;;;;;4997534;28;19925;-87
2023/03/01 08:09:20;;;;;;;;;;;-3276.30;78.00;;;;;;5017992;28;19913;-86
2023/03/01 08:11:46;;;;;;;;;;;-3276.20;76.70;;;;;;4987111;28;19910;-86
2023/03/01 08:14:17;;;;;;;;;;;-3276.20;77.10;;;;;;5017795;28;19983;-86
2023/03/01 08:16:43;;;;;;;;;;;-3276.20;77.20;;;;;;5018642;28;19967;-85
2023/03/01 08:19:09;;;;;;;;;;;-3276.20;76.90;;;;;;5015135;28;19921;-89
2023/03/01 08:21:35;;;;;;;;;;;-3276.20;77.30;;;;;;4984600;28;19917;-86
2023/03/01 08:24:05;;;;;;;;;;;-3276.20;77.80;;;;;;5016899;28;19933;-87
2023/03/01 08:26:31;;;;;;;;;;;-3276.50;76.60;;;;;;5000967;28;19913;-86
2023/03/01 08:28:57;;;;;;;;;;;-3276.50;76.60;;;;;;4991359;28;19936;-87
2023/03/01 08:31:27;;;;;;;;;;;-3276.60;76.60;;;;;;5000289;28;19917;-85
2023/03/01 08:33:57;;;;;;;;;;;-3276.70;76.10;;;;;;4997214;28;19924;-83
2023/03/01 08:36:23;;;;;;;;;;;-3276.70;76.40;;;;;;5010164;28;19921;-85
2023/03/01 08:38:49;;;;;;;;;;;0.00;76.70;;;;;;5011214;28;19917;-88
2023/03/01 08:41:14;;;;;;;;;;;0.00;75.00;;;;;;4994981;28;19945;-85
2023/03/01 08:43:40;;;;;;;;;;;0.10;75.20;;;;;;5000730;28;19914;-85
2023/03/01 08:46:05;;;;;;;;;;;0.10;74.90;;;;;;4999872;28;20342;-87
2023/03/01 08:48:31;;;;;;;;;;;0.10;74.40;;;;;;5001280;28;19913;-87
2023/03/01 08:50:56;;;;;;;;;;;0.30;74.80;;;;;;4995181;28;19917;-88
2023/03/01 08:53:22;;;;;;;;;;;0.40;75.30;;;;;;5007993;28;19977;-87
2023/03/01 08:55:47;;;;;;;;;;;0.40;74.40;;;;;;5006473;28;20004;-87
2023/03/01 08:58:13;;;;;;;;;;;0.50;74.60;;;;;;5006840;28;20387;-86
2023/03/01 09:00:39;;;;;;;;;;;0.60;73.20;;;;;;5002340;28;19913;-87
2023/03/01 09:03:05;;;;;;;;;;;0.80;74.00;;;;;;5006641;28;19937;-89
2023/03/01 09:05:31;;;;;;;;;;;0.90;72.90;;;;;;5022681;28;19913;-89
2023/03/01 09:07:57;;;;;;;;;;;1.00;71.60;;;;;;5015778;28;19913;-89
2023/03/01 09:10:23;;;;;;;;;;;1.10;71.30;;;;;;5002429;28;20387;-89
2023/03/01 09:12:54;;;;;;;;;;;1.10;72.30;;;;;;4999491;28;19988;-88
2023/03/01 09:15:20;;;;;;;;;;;1.20;70.20;;;;;;4996531;28;20008;-90
2023/03/01 09:17:45;;;;;;;;;;;1.30;70.60;;;;;;5000568;28;20346;-88
2023/03/01 09:20:10;;;;;;;;;;;1.30;68.90;;;;;;5017658;28;19933;-89
2023/03/01 09:22:39;;;;;;;;;;;1.40;69.50;;;;;;4996559;28;20438;-88
2023/03/01 09:25:05;;;;;;;;;;;1.50;69.00;;;;;;4997202;28;20450;-88
2023/03/01 09:27:30;;;;;;;;;;;1.50;70.50;;;;;;5000354;28;19914;-88
2023/03/01 09:29:56;;;;;;;;;;;1.60;69.20;;;;;;4999277;28;19913;-90
2023/03/01 09:32:29;;;;;;;;;;;1.70;68.20;;;;;;4999371;28;19914;-87
2023/03/01 09:35:03;;;;;;;;;;;1.70;67.60;;;;;;5000217;28;19918;-88
2023/03/01 09:37:29;;;;;;;;;;;1.80;68.80;;;;;;4971150;28;20457;-87
2023/03/01 09:39:54;;;;;;;;;;;2.00;68.10;;;;;;4969713;28;20000;-88
2023/03/01 09:42:20;;;;;;;;;;;2.10;65.10;;;;;;4982094;28;19920;-89
2023/03/01 09:44:52;;;;;;;;;;;2.10;67.00;;;;;;4988962;28;19914;-86
2023/03/01 09:47:19;;;;;;;;;;;2.20;66.10;;;;;;4974775;28;19928;-91
2023/03/01 09:50:01;;;;;;;;;;;2.20;65.30;;;;;;4980909;28;19914;-91
2023/03/01 09:52:36;;;;;;;;;;;2.20;65.00;;;;;;4979952;28;19933;-91
2023/03/01 09:55:07;;;;;;;;;;;2.30;65.10;;;;;;4973136;28;19918;-91
2023/03/01 09:57:40;;;;;;;;;;;2.50;63.70;;;;;;4991189;28;19981;-91
2023/03/01 10:00:16;;;;;;;;;;;2.50;62.60;;;;;;4992341;28;19965;-90
2023/03/01 10:02:43;;;;;;;;;;;2.50;62.90;;;;;;4993702;28;19922;-91
2023/03/01 10:05:19;;;;;;;;;;;2.50;63.70;;;;;;5001126;28;19921;-90
2023/03/01 10:07:50;;;;;;;;;;;2.60;62.40;;;;;;4985786;28;19921;-91
2023/03/01 10:10:23;;;;;;;;;;;2.70;62.90;;;;;;4987057;28;19914;-90
2023/03/01 10:12:55;;;;;;;;;;;2.60;62.90;;;;;;4989760;28;19913;-90
2023/03/01 10:18:27;;;;;;;;;;;2.90;64.00;;;;;;5006445;28;19941;-90
2023/03/01 10:21:00;;;;;;;;;;;3.00;63.40;;;;;;4979439;28;19918;-88
2023/03/01 10:23:27;;;;;;;;;;;3.00;62.50;;;;;;4990606;28;20290;-89
2023/03/01 10:25:53;;;;;;;;;;;3.00;61.00;;;;;;4977184;28;20359;-88
2023/03/01 10:28:21;;;;;;;;;;;3.00;62.10;;;;;;4986504;28;19945;-88
2023/03/01 10:30:47;;;;;;;;;;;3.10;62.40;;;;;;4995293;28;19914;-86
2023/03/01 10:33:16;;;;;;;;;;;3.10;62.00;;;;;;4998664;28;19967;-88
2023/03/01 10:35:41;;;;;;;;;;;3.20;62.00;;;;;;4978746;28;19928;-89
2023/03/01 10:38:11;;;;;;;;;;;3.30;61.40;;;;;;4975224;28;20306;-88
2023/03/01 10:40:49;;;;;;;;;;;3.20;60.50;;;;;;4995901;28;20295;-89
2023/03/01 10:43:15;;;;;;;;;;;3.20;61.60;;;;;;4983881;28;19918;-88
2023/03/01 10:45:40;;;;;;;;;;;3.10;60.70;;;;;;4989228;28;19924;-87
2023/03/01 10:48:28;;;;;;;;;;;3.10;61.10;;;;;;4991170;28;19914;-86
2023/03/01 10:50:59;;;;;;;;;;;3.10;60.80;;;;;;4993339;28;19918;-86
2023/03/01 10:53:28;;;;;;;;;;;3.30;59.90;;;;;;4993901;28;19910;-86
2023/03/01 10:56:00;;;;;;;;;;;3.30;60.60;;;;;;5001822;28;19913;-86
2023/03/01 10:58:26;;;;;;;;;;;3.40;60.80;;;;;;4990190;28;19937;-88
2023/03/01 11:01:00;;;;;;;;;;;3.50;60.10;;;;;;4996181;28;19918;-87
2023/03/01 11:03:27;;;;;;;;;;;3.50;60.10;;;;;;4973514;28;20279;-88
2023/03/01 11:05:52;;;;;;;;;;;3.50;59.50;;;;;;5007579;28;19925;-86
2023/03/01 11:08:36;;;;;;;;;;;3.50;59.50;;;;;;4983900;28;19998;-87
2023/03/01 11:11:20;;;;;;;;;;;3.50;60.50;;;;;;4992798;28;19915;-86
2023/03/01 11:13:52;;;;;;;;;;;3.60;60.70;;;;;;4969849;28;19914;-86
2023/03/01 11:16:22;;;;;;;;;;;3.80;60.30;;;;;;4992979;28;19914;-87
2023/03/01 11:18:56;;;;;;;;;;;3.80;59.80;;;;;;4977267;28;20387;-87
2023/03/01 11:21:21;;;;;;;;;;;3.90;59.80;;;;;;4997925;28;19939;-87
2023/03/01 11:23:47;;;;;;;;;;;3.80;58.30;;;;;;4976343;28;19918;-86
2023/03/01 11:26:12;;;;;;;;;;;3.80;59.80;;;;;;5003915;28;20013;-86
2023/03/01 11:28:40;;;;;;;;;;;3.90;60.20;;;;;;5001053;28;19914;-87
2023/03/01 11:31:13;;;;;;;;;;;3.90;59.90;;;;;;5011195;28;19956;-86
2023/03/01 11:33:44;;;;;;;;;;;4.00;61.60;;;;;;5023098;23;19926;-86
2023/03/01 11:36:31;;;;;;;;;;;4.00;58.80;;;;;;5026676;28;20278;-86
2023/03/01 11:38:57;;;;;;;;;;;4.10;59.70;;;;;;5026169;28;19955;-88
2023/03/01 11:41:27;;;;;;;;;;;4.10;59.80;;;;;;5023510;28;19913;-86
2023/03/01 11:44:01;;;;;;;;;;;4.10;58.90;;;;;;5032861;28;20389;-89
2023/03/01 11:46:48;;;;;;;;;;;4.20;59.40;;;;;;5029846;28;20415;-90
2023/03/01 11:49:33;;;;;;;;;;;4.30;58.40;;;;;;5043473;28;20083;-91
2023/03/01 11:52:10;;;;;;;;;;;4.30;59.00;;;;;;5026982;28;20000;-89
2023/03/01 11:54:57;;;;;;;;;;;4.30;57.50;;;;;;5025324;28;20187;-81
2023/03/01 11:57:26;;;;;;;;;;;4.40;57.70;;;;;;5025643;28;19909;-82
2023/03/01 11:59:54;;;;;;;;;;;4.40;58.90;;;;;;5026065;28;19921;-82
2023/03/01 12:02:38;;;;;;;;;;;4.30;58.20;;;;;;5032999;28;19967;-82
2023/03/01 12:05:19;;;;;;;;;;;4.40;59.00;;;;;;5023418;28;19924;-82
2023/03/01 12:08:03;;;;;;;;;;;4.50;59.70;;;;;;5044080;28;19913;-83
2023/03/01 12:10:33;;;;;;;;;;;4.60;58.80;;;;;;5022213;28;19917;-86
2023/03/01 12:13:04;;;;;;;;;;;4.70;58.40;;;;;;5025138;28;19913;-83
2023/03/01 12:15:33;;;;;;;;;;;4.70;58.70;;;;;;5025711;28;19913;-83
2023/03/01 12:18:17;;;;;;;;;;;4.80;58.00;;;;;;5032860;28;19913;-83
2023/03/01 12:20:52;;;;;;;;;;;4.70;58.00;;;;;;5026908;28;19913;-83
2023/03/01 12:23:27;;;;;;;;;;;4.80;58.10;;;;;;5028263;28;19927;-84
2023/03/01 12:26:06;;;;;;;;;;;4.80;58.10;;;;;;5039291;28;19920;-85
2023/03/01 12:28:41;;;;;;;;;;;4.90;58.50;;;;;;5030270;28;20294;-86
2023/03/01 12:31:27;;;;;;;;;;;5.00;57.30;;;;;;5028486;28;20395;-84
2023/03/01 12:34:12;;;;;;;;;;;5.00;55.40;;;;;;5018083;28;19918;-86
2023/03/01 12:36:56;;;;;;;;;;;4.90;55.40;;;;;;5004854;28;19913;-85
2023/03/01 12:39:41;;;;;;;;;;;4.90;55.20;;;;;;5009732;28;19914;-88
2023/03/01 12:42:17;;;;;;;;;;;4.80;56.50;;;;;;5006719;28;19997;-88
2023/03/01 12:44:45;;;;;;;;;;;5.10;58.50;;;;;;5005593;28;19914;-87
2023/03/01 12:47:14;;;;;;;;;;;5.00;56.20;;;;;;5013750;28;20271;-86
2023/03/01 12:49:48;;;;;;;;;;;5.10;57.70;;;;;;5009303;28;19914;-88
2023/03/01 12:52:21;;;;;;;;;;;5.20;56.20;;;;;;5010233;28;20294;-89
2023/03/01 12:54:47;;;;;;;;;;;5.20;55.80;;;;;;5014683;28;19909;-89
2023/03/01 12:57:36;;;;;;;;;;;5.20;55.90;;;;;;5014077;28;19913;-88
2023/03/01 13:00:09;;;;;;;;;;;5.30;54.70;;;;;;5008970;28;19932;-85
2023/03/01 13:02:54;;;;;;;;;;;5.20;54.80;;;;;;5008694;28;19924;-88
2023/03/01 13:05:26;;;;;;;;;;;5.20;53.60;;;;;;5013378;28;19917;-87
2023/03/01 13:07:52;;;;;;;;;;;5.20;53.60;;;;;;5012438;28;19989;-85
2023/03/01 13:10:23;;;;;;;;;;;5.10;53.80;;;;;;5009458;28;20326;-87
2023/03/01 13:12:49;;;;;;;;;;;5.10;55.00;;;;;;5017988;28;19971;-86
2023/03/01 13:15:23;;;;;;;;;;;5.20;52.80;;;;;;5018437;28;20311;-82
2023/03/01 13:17:50;;;;;;;;;;;5.40;51.60;;;;;;5012798;28;20345;-84
2023/03/01 13:20:17;;;;;;;;;;;5.40;51.80;;;;;;5013280;28;20050;-85
2023/03/01 13:22:42;;;;;;;;;;;5.40;51.40;;;;;;5015067;28;19913;-84
2023/03/01 13:25:18;;;;;;;;;;;5.60;51.90;;;;;;5023625;28;19921;-84
2023/03/01 13:27:44;;;;;;;;;;;5.60;53.20;;;;;;5017809;28;19949;-84
2023/03/01 13:30:29;;;;;;;;;;;5.60;52.20;;;;;;5013058;28;19920;-84
2023/03/01 13:33:14;;;;;;;;;;;5.70;51.20;;;;;;5014000;28;19996;-85
2023/03/01 13:35:44;;;;;;;;;;;5.70;51.60;;;;;;5008941;28;19924;-83
2023/03/01 13:38:29;;;;;;;;;;;5.60;51.80;;;;;;5007653;28;19917;-86
2023/03/01 13:40:55;;;;;;;;;;;5.60;52.30;;;;;;4971046;28;19914;-85
2023/03/01 13:43:29;;;;;;;;;;;5.60;51.40;;;;;;5027835;28;19917;-85
2023/03/01 13:45:55;;;;;;;;;;;5.60;52.00;;;;;;5022784;28;19921;-89
2023/03/01 13:48:25;;;;;;;;;;;5.70;51.50;;;;;;5005036;28;19971;-85
2023/03/01 13:50:54;;;;;;;;;;;5.80;52.20;;;;;;5002982;28;19921;-85
2023/03/01 13:53:22;;;;;;;;;;;5.80;51.60;;;;;;5006989;28;19924;-87
2023/03/01 13:55:50;;;;;;;;;;;5.80;50.30;;;;;;5017161;28;19955;-83
2023/03/01 13:58:18;;;;;;;;;;;5.80;51.40;;;;;;5013111;28;20016;-83
2023/03/01 14:00:43;;;;;;;;;;;5.70;51.20;;;;;;5005652;28;20429;-84
2023/03/01 14:03:10;;;;;;;;;;;5.90;51.00;;;;;;5009509;28;20011;-85
2023/03/01 14:05:36;;;;;;;;;;;5.80;52.00;;;;;;5007877;28;20383;-83
2023/03/01 14:08:03;;;;;;;;;;;5.90;51.60;;;;;;5004941;28;19921;-83
2023/03/01 14:10:48;;;;;;;;;;;5.80;51.20;;;;;;5005428;28;19957;-83
2023/03/01 14:13:33;;;;;;;;;;;5.80;51.10;;;;;;5014490;28;20001;-84
2023/03/01 14:16:19;;;;;;;;;;;5.90;53.30;;;;;;5012350;28;20060;-84
2023/03/01 14:18:44;;;;;;;;;;;5.90;51.30;;;;;;4999827;28;19918;-85